ETSL

Lechfeld Airport

Germany
METAR ETSL 172020Z AUTO 23007KT 9999 // ////// M01/M04 Q1025 ///
Observed Flight Rules
Dec-17 @ 20:20 UTC (an hour ago)
Wind Visibility
230° at 7 knots 10,000+ meters
Temperatures Readings
Current -1°C / 30°F
Dewpoint -4°C / 25°F
Humidity 80%
Altimeter 30.27" Hg
Pressure 1025 hPa
Elevation 562
METAR ETSL 172020Z AUTO 23007KT 9999 // ////// M01/M04 Q1025 ///
Observed Flight Rules
Dec-17 @ 20:20 UTC
(an hour ago)
Wind Visibility
230° at 7 knots 10,000+ meters
Temperature Dewpoint
-1°C / 30°F -4°C / 25°F
Humidity Altimeter Pressure
80% 30.27" Hg 1025 hPa